Time;durP1;ratioP1;P1;durP2;ratioP2;P2;SDS_P1;SDS_P2;PMS_P1;PMS_P2;Temp;Humidity;BMP_temperature;BMP_pressure;BME280_temperature;BME280_humidity;BME280_pressure;Samples;Min_cycle;Max_cycle;Signal;HPM_P1;HPM_P2
2022/09/23 00:01:18;;;;;;;2.00;1.80;;;20.40;61.30;;;;;;5023858;28;43490;-57
2022/09/23 00:03:47;;;;;;;1.85;1.55;;;20.40;61.40;;;;;;5023532;28;44003;-57
2022/09/23 00:06:20;;;;;;;1.80;1.70;;;20.40;61.40;;;;;;5023902;28;43903;-57
2022/09/23 00:08:49;;;;;;;1.75;1.65;;;20.30;61.30;;;;;;5023670;28;43460;-57
2022/09/23 00:11:22;;;;;;;1.90;1.80;;;20.30;61.30;;;;;;5023867;28;43522;-57
2022/09/23 00:13:53;;;;;;;1.70;1.60;;;20.30;61.30;;;;;;5023745;28;44747;-57
2022/09/23 00:16:31;;;;;;;1.73;1.63;;;20.30;61.40;;;;;;5022793;28;43691;-57
2022/09/23 00:19:00;;;;;;;1.88;1.70;;;20.30;61.40;;;;;;5012960;28;43384;-57
2022/09/23 00:21:28;;;;;;;2.17;1.98;;;20.30;61.40;;;;;;5023884;28;43467;-57
2022/09/23 00:23:55;;;;;;;2.25;2.05;;;20.30;61.40;;;;;;5023270;28;45144;-57
2022/09/23 00:26:24;;;;;;;2.08;1.98;;;20.30;61.40;;;;;;5023602;28;43898;-57
2022/09/23 00:28:51;;;;;;;1.88;1.70;;;20.30;61.40;;;;;;5023787;28;43358;-58
2022/09/23 00:31:24;;;;;;;1.83;1.73;;;20.30;61.40;;;;;;5022926;28;43451;-57
2022/09/23 00:34:01;;;;;;;2.00;1.90;;;20.20;61.30;;;;;;5022406;28;44815;-57
2022/09/23 00:36:31;;;;;;;2.05;1.70;;;20.30;61.40;;;;;;5022618;28;44065;-57
2022/09/23 00:38:58;;;;;;;2.10;2.00;;;20.20;61.40;;;;;;5023694;28;43451;-57
2022/09/23 00:41:26;;;;;;;1.70;1.60;;;20.20;61.40;;;;;;5019678;28;43418;-57
2022/09/23 00:43:57;;;;;;;2.08;1.98;;;20.20;61.40;;;;;;5023205;28;45459;-57
2022/09/23 00:46:31;;;;;;;1.90;1.80;;;20.20;61.30;;;;;;5022833;28;44181;-57
2022/09/23 00:49:27;;;;;;;2.38;2.17;;;20.20;61.40;;;;;;5023820;28;43445;-57
2022/09/23 00:52:04;;;;;;;1.85;1.70;;;20.20;61.40;;;;;;5023176;28;43473;-57
2022/09/23 00:54:32;;;;;;;2.00;1.90;;;20.20;61.40;;;;;;5011220;28;44905;-57
2022/09/23 00:57:00;;;;;;;1.98;1.88;;;20.20;61.40;;;;;;5023449;28;43853;-57
2022/09/23 00:59:27;;;;;;;2.30;2.10;;;20.20;61.40;;;;;;5022419;28;43476;-57
2022/09/23 01:01:57;;;;;;;1.80;1.70;;;20.20;61.50;;;;;;5023640;28;43446;-57
2022/09/23 01:04:27;;;;;;;1.90;1.80;;;20.10;61.40;;;;;;5022903;28;44698;-57
2022/09/23 01:06:55;;;;;;;1.80;1.70;;;20.20;61.50;;;;;;5022633;28;43456;-57
2022/09/23 01:09:23;;;;;;;2.10;1.90;;;20.20;61.50;;;;;;5023286;28;43443;-57
2022/09/23 01:12:06;;;;;;;2.20;2.05;;;20.10;61.40;;;;;;5022723;28;43477;-57
2022/09/23 01:14:59;;;;;;;2.25;1.75;;;20.10;61.40;;;;;;5022217;28;44906;-57
2022/09/23 01:17:32;;;;;;;1.92;1.83;;;20.10;61.40;;;;;;5022688;28;43885;-57
2022/09/23 01:20:28;;;;;;;1.92;1.83;;;20.10;61.60;;;;;;5019710;28;43387;-57
2022/09/23 01:23:36;;;;;;;1.88;1.77;;;20.10;61.60;;;;;;5028715;28;43421;-57
2022/09/23 01:26:36;;;;;;;2.08;1.90;;;20.10;61.50;;;;;;5006073;28;44924;-57
2022/09/23 01:29:41;;;;;;;2.17;2.00;;;20.00;61.40;;;;;;5010254;28;43932;-57
2022/09/23 01:32:13;;;;;;;1.88;1.75;;;20.00;61.60;;;;;;5011198;28;43409;-57
2022/09/23 01:34:55;;;;;;;1.80;1.70;;;20.00;61.60;;;;;;5022133;28;43476;-57
2022/09/23 01:37:27;;;;;;;3.05;2.10;;;20.00;61.60;;;;;;5021191;28;44834;-57
2022/09/23 01:40:00;;;;;;;1.70;1.60;;;20.00;61.60;;;;;;5022837;28;44033;-57
2022/09/23 01:42:41;;;;;;;1.92;1.83;;;20.00;61.60;;;;;;5014726;28;43457;-57
2022/09/23 01:45:25;;;;;;;1.90;1.80;;;20.00;61.60;;;;;;5022203;28;43454;-57
2022/09/23 01:48:40;;;;;;;1.98;1.85;;;20.00;61.60;;;;;;5022132;28;44004;-57
2022/09/23 01:51:15;;;;;;;1.70;1.60;;;20.00;61.60;;;;;;5039986;28;44072;-57
2022/09/23 01:54:07;;;;;;;2.15;1.80;;;19.90;61.60;;;;;;5040233;28;44168;-57
2022/09/23 01:56:37;;;;;;;1.98;1.88;;;19.90;61.70;;;;;;5020611;28;43516;-57
2022/09/23 01:59:21;;;;;;;1.93;1.83;;;19.90;61.60;;;;;;5022254;28;44019;-57
2022/09/23 02:02:07;;;;;;;1.90;1.80;;;19.90;61.60;;;;;;5021953;28;43910;-57
2022/09/23 02:05:06;;;;;;;1.80;1.70;;;19.90;61.70;;;;;;5022128;28;43428;-57
2022/09/23 02:07:43;;;;;;;1.73;1.63;;;19.90;61.70;;;;;;5010494;28;43535;-57
2022/09/23 02:10:21;;;;;;;1.88;1.70;;;19.90;61.70;;;;;;5021081;28;45162;-57
2022/09/23 02:12:53;;;;;;;1.92;1.83;;;19.90;61.80;;;;;;5022045;28;43877;-57
2022/09/23 02:15:25;;;;;;;2.20;2.00;;;19.80;61.80;;;;;;5021704;28;43413;-57
2022/09/23 02:18:12;;;;;;;1.80;1.70;;;19.80;61.70;;;;;;5022233;28;43468;-57
2022/09/23 02:20:39;;;;;;;1.90;1.80;;;19.80;61.70;;;;;;5021756;28;45231;-57
2022/09/23 02:23:21;;;;;;;1.98;1.77;;;19.80;61.60;;;;;;5021443;28;43470;-57
2022/09/23 02:26:06;;;;;;;1.80;1.70;;;19.90;61.70;;;;;;5022116;28;43466;-57
2022/09/23 02:28:48;;;;;;;2.00;1.60;;;19.80;61.70;;;;;;5021910;28;43379;-57
2022/09/23 02:31:27;;;;;;;1.90;1.80;;;19.80;61.70;;;;;;5016593;28;44267;-57
2022/09/23 02:34:08;;;;;;;2.20;2.00;;;19.80;61.70;;;;;;5018046;28;43446;-57
2022/09/23 02:37:00;;;;;;;2.10;1.90;;;19.80;61.70;;;;;;5020962;28;43447;-57
2022/09/23 02:39:36;;;;;;;2.10;1.80;;;19.80;61.70;;;;;;5021778;28;43499;-57
2022/09/23 02:42:14;;;;;;;1.70;1.60;;;19.80;61.70;;;;;;5018364;28;44930;-57
2022/09/23 02:44:41;;;;;;;2.40;2.20;;;19.80;61.80;;;;;;5020557;28;43917;-57
2022/09/23 02:47:09;;;;;;;2.00;1.80;;;19.80;61.80;;;;;;5022060;28;43415;-57
2022/09/23 02:49:36;;;;;;;2.00;1.90;;;19.80;61.70;;;;;;5021704;28;43477;-57
2022/09/23 02:52:06;;;;;;;2.05;1.92;;;19.80;61.80;;;;;;5021269;28;45049;-57
2022/09/23 02:54:35;;;;;;;1.60;1.50;;;19.80;61.80;;;;;;5020136;28;43710;-57
2022/09/23 02:57:06;;;;;;;1.80;1.70;;;19.70;61.70;;;;;;5023966;28;43415;-57
2022/09/23 02:59:35;;;;;;;1.60;1.50;;;19.70;61.70;;;;;;5019427;28;43475;-57
2022/09/23 03:02:19;;;;;;;1.80;1.70;;;19.70;61.70;;;;;;5025165;28;44868;-57
2022/09/23 03:05:30;;;;;;;2.33;1.73;;;19.70;61.70;;;;;;5024394;28;43984;-57
2022/09/23 03:08:09;;;;;;;2.00;1.55;;;19.70;61.70;;;;;;5025470;28;43371;-57
2022/09/23 03:10:51;;;;;;;1.67;1.58;;;19.70;61.80;;;;;;5024846;28;43453;-57
2022/09/23 03:14:03;;;;;;;1.50;1.40;;;19.70;61.80;;;;;;5024265;28;44797;-57
2022/09/23 03:16:43;;;;;;;1.63;1.52;;;19.70;61.80;;;;;;5012259;28;44104;-57
2022/09/23 03:19:35;;;;;;;1.88;1.70;;;19.60;61.80;;;;;;5024406;28;43423;-57
2022/09/23 03:22:20;;;;;;;1.55;1.45;;;19.70;61.80;;;;;;5025334;28;44070;-57
2022/09/23 03:24:49;;;;;;;1.70;1.60;;;19.60;61.80;;;;;;5023928;28;44935;-57
2022/09/23 03:27:24;;;;;;;2.70;1.90;;;19.60;61.80;;;;;;5023988;28;43677;-57
2022/09/23 03:29:53;;;;;;;1.90;1.80;;;19.70;61.80;;;;;;5025195;28;43427;-57
2022/09/23 03:32:26;;;;;;;1.80;1.70;;;19.60;61.80;;;;;;5024592;28;43427;-57
2022/09/23 03:34:57;;;;;;;1.92;1.70;;;19.60;61.80;;;;;;5024573;28;45013;-57
2022/09/23 03:37:25;;;;;;;;;;;19.60;61.80;;;;;;5025119;28;43877;-57
2022/09/23 03:40:16;;;;;;;1.92;1.58;;;19.60;61.80;;;;;;5024341;28;43396;-57
2022/09/23 03:42:47;;;;;;;1.55;1.45;;;19.60;61.90;;;;;;5013144;28;43586;-57
2022/09/23 03:45:22;;;;;;;1.60;1.50;;;19.60;61.90;;;;;;5022744;28;45002;-57
2022/09/23 03:47:50;;;;;;;1.50;1.45;;;19.60;62.60;;;;;;5023908;28;43805;-57
2022/09/23 03:50:17;;;;;;;1.52;1.42;;;19.60;61.90;;;;;;5024673;28;43483;-57
2022/09/23 03:52:45;;;;;;;1.70;1.60;;;19.60;61.90;;;;;;5024560;28;43411;-57
2022/09/23 03:55:12;;;;;;;1.70;1.60;;;19.50;61.80;;;;;;5023513;28;44979;-57
2022/09/23 03:57:40;;;;;;;1.70;1.60;;;19.50;61.80;;;;;;5024489;28;43665;-57
2022/09/23 04:00:08;;;;;;;1.98;1.77;;;19.60;61.90;;;;;;5024433;28;43475;-57
2022/09/23 04:02:39;;;;;;;1.65;1.55;;;19.50;61.80;;;;;;5023543;28;43386;-57
2022/09/23 04:05:08;;;;;;;2.25;1.50;;;19.50;61.80;;;;;;5008704;28;44057;-57
2022/09/23 04:07:35;;;;;;;1.50;1.40;;;19.50;61.80;;;;;;5023437;28;43369;-57
2022/09/23 04:10:03;;;;;;;1.50;1.40;;;19.50;61.80;;;;;;5024508;28;43443;-56
2022/09/23 04:12:31;;;;;;;1.70;1.60;;;19.50;61.90;;;;;;5023765;28;43474;-57
2022/09/23 04:14:58;;;;;;;2.63;1.80;;;19.50;61.80;;;;;;5008130;28;44312;-57
2022/09/23 04:17:26;;;;;;;1.67;1.58;;;19.50;61.80;;;;;;5023566;28;44029;-57
2022/09/23 04:19:53;;;;;;;1.50;1.40;;;19.50;61.90;;;;;;5024172;28;43483;-57
2022/09/23 04:22:21;;;;;;;1.60;1.50;;;19.50;61.90;;;;;;5023303;28;44075;-57
2022/09/23 04:24:48;;;;;;;1.40;1.30;;;19.50;61.90;;;;;;5023617;28;44795;-57
2022/09/23 04:27:15;;;;;;;1.63;1.52;;;19.50;61.90;;;;;;5022218;28;44974;-57
2022/09/23 04:29:42;;;;;;;3.03;1.80;;;19.50;61.90;;;;;;5023482;28;43798;-57
2022/09/23 04:32:10;;;;;;;1.70;1.60;;;19.40;61.90;;;;;;5023890;28;43461;-57
2022/09/23 04:34:37;;;;;;;1.67;1.58;;;19.40;61.80;;;;;;5008148;28;44784;-57
2022/09/23 04:37:05;;;;;;;1.50;1.50;;;19.50;61.90;;;;;;5022841;28;43829;-57
2022/09/23 04:39:32;;;;;;;1.52;1.42;;;19.40;61.80;;;;;;5022588;28;43413;-57
2022/09/23 04:41:59;;;;;;;1.73;1.63;;;19.40;61.90;;;;;;5020342;28;43570;-57
2022/09/23 04:44:27;;;;;;;1.60;1.50;;;19.40;61.90;;;;;;5022780;28;44852;-57
2022/09/23 04:46:54;;;;;;;1.88;1.60;;;19.40;61.90;;;;;;5023153;28;43834;-56
2022/09/23 04:49:22;;;;;;;2.17;1.52;;;19.40;61.90;;;;;;5023711;28;43435;-57
2022/09/23 04:51:49;;;;;;;1.35;1.30;;;19.40;61.90;;;;;;5023072;28;43418;-57
2022/09/23 04:54:17;;;;;;;1.23;1.10;;;19.40;61.90;;;;;;5007812;28;43898;-57
2022/09/23 04:56:44;;;;;;;1.60;1.50;;;19.40;61.90;;;;;;5022825;28;43838;-57
2022/09/23 04:59:11;;;;;;;1.50;1.40;;;19.40;61.90;;;;;;5023154;28;43372;-57
2022/09/23 05:01:38;;;;;;;1.35;1.25;;;19.40;61.90;;;;;;5018408;28;43438;-57
2022/09/23 05:04:12;;;;;;;1.45;1.40;;;19.30;61.90;;;;;;5021018;28;45038;-57
2022/09/23 05:06:42;;;;;;;1.70;1.60;;;19.30;61.90;;;;;;5022603;28;43479;-57
2022/09/23 05:09:16;;;;;;;1.88;1.60;;;19.40;61.90;;;;;;5023230;28;43397;-57
2022/09/23 05:11:44;;;;;;;1.60;1.50;;;19.30;61.80;;;;;;5022422;28;43410;-57
2022/09/23 05:14:12;;;;;;;1.52;1.38;;;19.30;61.90;;;;;;5022937;28;43739;-57
2022/09/23 05:16:39;;;;;;;1.38;1.27;;;19.30;61.80;;;;;;5022065;28;43895;-57
2022/09/23 05:19:07;;;;;;;2.75;1.50;;;19.30;61.80;;;;;;5021764;28;43447;-57
2022/09/23 05:21:35;;;;;;;1.60;1.50;;;19.30;61.80;;;;;;5022777;28;43553;-57
2022/09/23 05:24:03;;;;;;;1.60;1.50;;;19.30;61.80;;;;;;5018452;28;44942;-57
2022/09/23 05:26:32;;;;;;;1.50;1.40;;;19.30;61.80;;;;;;5015113;28;43691;-57
2022/09/23 05:28:59;;;;;;;1.73;1.63;;;19.30;61.80;;;;;;5023243;28;43360;-57
2022/09/23 05:31:28;;;;;;;3.00;1.95;;;19.30;61.70;;;;;;5022375;28;43498;-57
2022/09/23 05:34:01;;;;;;;1.50;1.45;;;19.30;61.70;;;;;;5021422;28;45147;-57
2022/09/23 05:36:31;;;;;;;1.60;1.50;;;19.30;61.80;;;;;;5022011;28;43897;-57
2022/09/23 05:39:05;;;;;;;1.70;1.60;;;19.30;61.80;;;;;;5022373;28;43463;-57
2022/09/23 05:41:33;;;;;;;1.60;1.50;;;19.30;61.80;;;;;;5022237;28;43412;-57
2022/09/23 05:44:00;;;;;;;1.70;1.60;;;19.30;61.80;;;;;;5022544;28;44917;-57
2022/09/23 05:46:29;;;;;;;1.50;1.40;;;19.30;61.80;;;;;;5021125;28;44057;-57
2022/09/23 05:48:58;;;;;;;1.35;1.30;;;19.30;61.80;;;;;;5022900;28;43390;-57
2022/09/23 05:51:31;;;;;;;1.60;1.50;;;19.30;61.70;;;;;;5022267;28;43419;-57
2022/09/23 05:54:01;;;;;;;1.63;1.52;;;19.30;61.80;;;;;;5020766;28;45036;-57
2022/09/23 05:56:30;;;;;;;1.73;1.63;;;19.30;61.90;;;;;;5021419;28;43735;-57
2022/09/23 05:58:58;;;;;;;1.60;1.50;;;19.30;61.90;;;;;;5022275;28;43431;-57
2022/09/23 06:01:31;;;;;;;1.38;1.27;;;19.20;61.80;;;;;;5021568;28;43536;-57
2022/09/23 06:03:59;;;;;;;1.60;1.50;;;19.30;61.90;;;;;;5022549;28;43788;-57
2022/09/23 06:06:30;;;;;;;1.60;1.50;;;19.20;61.90;;;;;;5021762;28;44028;-57
2022/09/23 06:08:58;;;;;;;1.60;1.50;;;19.20;61.90;;;;;;5021783;28;43414;-57
2022/09/23 06:11:30;;;;;;;1.60;1.48;;;19.20;61.90;;;;;;5026024;28;43488;-57
2022/09/23 06:14:01;;;;;;;1.60;1.50;;;19.20;61.90;;;;;;5022398;28;44903;-57
2022/09/23 06:16:32;;;;;;;1.38;1.38;;;19.20;61.90;;;;;;5020879;28;43695;-58
2022/09/23 06:19:04;;;;;;;1.67;1.58;;;19.20;61.90;;;;;;5022190;28;43385;-57
2022/09/23 06:21:34;;;;;;;1.40;1.30;;;19.20;61.90;;;;;;5021544;28;43430;-58
2022/09/23 06:24:02;;;;;;;1.42;1.38;;;19.20;62.00;;;;;;5022220;28;44823;-57
2022/09/23 06:26:32;;;;;;;1.40;1.30;;;19.20;62.00;;;;;;5020953;28;43513;-58
2022/09/23 06:29:01;;;;;;;1.60;1.50;;;19.20;61.90;;;;;;5021831;28;43403;-57
2022/09/23 06:31:29;;;;;;;1.58;1.48;;;19.20;62.00;;;;;;5022473;28;43489;-57
2022/09/23 06:33:56;;;;;;;1.70;1.48;;;19.10;61.90;;;;;;5025536;28;44768;-57
2022/09/23 06:36:40;;;;;;;1.70;1.60;;;19.10;61.90;;;;;;5019469;28;44077;-57
2022/09/23 06:39:13;;;;;;;1.70;1.60;;;19.10;62.00;;;;;;5025682;28;43427;-57
2022/09/23 06:41:40;;;;;;;1.90;1.70;;;19.10;62.00;;;;;;5022054;28;43610;-57
2022/09/23 06:44:14;;;;;;;1.90;1.80;;;19.10;62.00;;;;;;5023945;28;44916;-58
2022/09/23 06:46:41;;;;;;;2.20;1.63;;;19.10;62.00;;;;;;5024723;28;43553;-57
2022/09/23 06:49:11;;;;;;;1.40;1.30;;;19.10;61.90;;;;;;5025555;28;43360;-57
2022/09/23 06:51:39;;;;;;;2.38;1.60;;;19.10;62.00;;;;;;5024618;28;43577;-57
2022/09/23 06:54:07;;;;;;;2.42;1.63;;;19.10;62.00;;;;;;5025420;28;44819;-57
2022/09/23 06:56:35;;;;;;;1.52;1.42;;;19.10;62.00;;;;;;5023358;28;43985;-57
2022/09/23 06:59:08;;;;;;;1.67;1.40;;;19.10;62.00;;;;;;5024923;28;43503;-57
2022/09/23 07:01:36;;;;;;;1.67;1.52;;;19.10;62.00;;;;;;5023679;28;43443;-57
2022/09/23 07:04:03;;;;;;;1.65;1.55;;;19.10;62.00;;;;;;5024508;28;44685;-57
2022/09/23 07:06:31;;;;;;;1.60;1.50;;;19.10;62.00;;;;;;5023820;28;43699;-57
2022/09/23 07:08:59;;;;;;;1.20;1.20;;;19.10;62.00;;;;;;5025040;28;43404;-57
2022/09/23 07:11:27;;;;;;;1.80;1.33;;;19.10;62.00;;;;;;5024854;28;43586;-57
2022/09/23 07:13:54;;;;;;;1.58;1.48;;;19.10;62.10;;;;;;5025002;28;44890;-57
2022/09/23 07:16:21;;;;;;;1.25;1.25;;;19.10;62.10;;;;;;5024169;28;43583;-57
2022/09/23 07:18:49;;;;;;;1.60;1.50;;;19.10;62.20;;;;;;5024352;28;43458;-57
2022/09/23 07:21:17;;;;;;;1.50;1.40;;;19.10;62.10;;;;;;5024882;28;43447;-57
2022/09/23 07:23:48;;;;;;;1.50;1.40;;;19.10;62.20;;;;;;5022318;28;44767;-57
2022/09/23 07:26:17;;;;;;;1.55;1.45;;;19.10;62.30;;;;;;5023910;28;44132;-57
2022/09/23 07:28:45;;;;;;;1.50;1.40;;;19.10;62.20;;;;;;5024771;28;43489;-57
2022/09/23 07:31:14;;;;;;;1.60;1.50;;;19.10;62.20;;;;;;5024768;28;43564;-57
2022/09/23 07:33:48;;;;;;;1.20;1.10;;;19.00;62.10;;;;;;5024057;28;44709;-58
2022/09/23 07:36:17;;;;;;;10.48;2.40;;;19.00;62.20;;;;;;5023952;28;43909;-58
2022/09/23 07:38:46;;;;;;;1.83;1.73;;;19.00;62.10;;;;;;5024084;28;43396;-57
2022/09/23 07:41:16;;;;;;;2.15;1.98;;;19.00;62.20;;;;;;5024515;28;43445;-58
2022/09/23 07:43:44;;;;;;;3.00;2.30;;;19.00;62.20;;;;;;5023637;28;43800;-58
2022/09/23 07:46:16;;;;;;;4.10;2.25;;;19.10;62.30;;;;;;5023532;28;43905;-58
2022/09/23 07:48:44;;;;;;;3.40;2.38;;;19.10;62.30;;;;;;5024488;28;43477;-56
2022/09/23 07:51:17;;;;;;;2.40;2.20;;;19.10;62.20;;;;;;5023828;28;43459;-57
2022/09/23 07:53:47;;;;;;;2.22;2.05;;;19.10;62.30;;;;;;5023604;28;44148;-58
2022/09/23 07:56:17;;;;;;;2.28;2.08;;;19.10;62.50;;;;;;5023596;28;43834;-57
2022/09/23 07:58:58;;;;;;;3.63;2.43;;;19.10;62.50;;;;;;5024505;28;43486;-57
2022/09/23 08:01:30;;;;;;;;;;;19.10;62.50;;;;;;5023959;28;43660;-58
2022/09/23 08:04:00;;;;;;;;;;;19.20;62.50;;;;;;5024462;28;44690;-57
2022/09/23 08:06:28;;;;;;;2.08;1.98;;;19.20;62.60;;;;;;5023384;28;43701;-57
2022/09/23 08:09:00;;;;;;;2.15;2.00;;;19.30;62.60;;;;;;5023549;28;43526;-57
2022/09/23 08:11:27;;;;;;;6.50;2.28;;;19.40;62.30;;;;;;5024708;28;43535;-57
2022/09/23 08:13:56;;;;;;;4.47;2.25;;;19.40;62.90;;;;;;5023277;28;44794;-57
2022/09/23 08:16:23;;;;;;;3.70;2.22;;;19.60;62.10;;;;;;5023488;28;43948;-57
2022/09/23 08:18:51;;;;;;;2.25;2.00;;;19.60;61.90;;;;;;5021654;28;43451;-57
2022/09/23 08:21:24;;;;;;;4.72;2.30;;;19.70;61.90;;;;;;5022647;28;43498;-57
2022/09/23 08:23:51;;;;;;;2.60;2.03;;;19.90;61.90;;;;;;5021302;28;44200;-57
2022/09/23 08:26:18;;;;;;;2.25;2.05;;;20.00;61.70;;;;;;5022473;28;43875;-57
2022/09/23 08:28:53;;;;;;;2.38;2.17;;;20.20;61.70;;;;;;5022450;28;43471;-57
2022/09/23 08:31:21;;;;;;;2.42;2.25;;;20.30;61.40;;;;;;5022413;28;43505;-57
2022/09/23 08:33:57;;;;;;;2.75;2.20;;;20.50;61.20;;;;;;5022647;28;44256;-57
2022/09/23 08:36:25;;;;;;;2.47;2.28;;;20.60;60.90;;;;;;5020958;28;43922;-57
2022/09/23 08:38:53;;;;;;;3.40;2.33;;;20.70;60.80;;;;;;5022752;28;43409;-58
2022/09/23 08:41:33;;;;;;;2.60;2.13;;;20.80;60.80;;;;;;5022481;28;43625;-58
2022/09/23 08:44:13;;;;;;;3.05;2.10;;;20.90;60.60;;;;;;5021242;28;45089;-59
2022/09/23 08:47:03;;;;;;;2.38;2.00;;;21.10;60.60;;;;;;5022056;28;43467;-58
2022/09/23 08:49:38;;;;;;;2.58;2.03;;;21.20;61.00;;;;;;5052756;28;43454;-58
2022/09/23 08:52:18;;;;;;;2.15;1.73;;;21.40;60.40;;;;;;5023176;28;43443;-58
2022/09/23 08:54:46;;;;;;;2.95;1.98;;;21.50;60.00;;;;;;5017713;28;44573;-58
2022/09/23 08:57:40;;;;;;;2.63;1.90;;;21.60;60.10;;;;;;5020656;28;43435;-59
2022/09/23 09:00:25;;;;;;;7.78;2.17;;;21.80;59.80;;;;;;5022201;28;43440;-57
2022/09/23 09:02:53;;;;;;;2.53;1.63;;;21.90;60.10;;;;;;5019959;28;43444;-59
2022/09/23 09:05:27;;;;;;;3.72;2.08;;;22.00;59.70;;;;;;5020447;28;44991;-60
2022/09/23 09:07:57;;;;;;;2.40;1.98;;;22.10;59.40;;;;;;5054512;28;44144;-59
2022/09/23 09:10:32;;;;;;;2.42;1.70;;;22.30;59.50;;;;;;5020933;28;43527;-59
2022/09/23 09:13:06;;;;;;;2.10;1.90;;;22.40;59.20;;;;;;5022565;28;43511;-60
2022/09/23 09:15:42;;;;;;;2.35;1.73;;;22.50;59.10;;;;;;5021239;28;44751;-59
2022/09/23 09:18:19;;;;;;;1.88;1.60;;;22.60;58.80;;;;;;5021056;28;43760;-58
2022/09/23 09:20:55;;;;;;;2.17;1.85;;;22.60;58.60;;;;;;5022159;28;43673;-58
2022/09/23 09:23:53;;;;;;;2.25;1.80;;;22.60;58.20;;;;;;5020496;28;43498;-59
2022/09/23 09:26:26;;;;;;;2.08;1.88;;;22.60;58.20;;;;;;5017947;28;44962;-58
2022/09/23 09:29:02;;;;;;;5.63;2.40;;;22.60;58.10;;;;;;5022408;28;44292;-58
2022/09/23 09:31:50;;;;;;;2.97;2.08;;;22.60;58.40;;;;;;5009331;28;43432;-58
2022/09/23 09:34:29;;;;;;;8.60;2.20;;;22.60;58.10;;;;;;5022714;28;43410;-58
2022/09/23 09:37:05;;;;;;;3.33;2.05;;;22.60;58.20;;;;;;5022820;28;43994;-59
2022/09/23 09:39:35;;;;;;;3.30;1.67;;;22.60;58.30;;;;;;5018066;28;43668;-58
2022/09/23 09:42:04;;;;;;;4.13;1.90;;;22.60;58.20;;;;;;5017144;28;43430;-59
2022/09/23 09:44:37;;;;;;;7.05;1.70;;;22.60;58.10;;;;;;5016174;28;43483;-59
2022/09/23 09:47:27;;;;;;;3.33;1.80;;;22.70;58.40;;;;;;5019336;28;44960;-58
2022/09/23 09:50:10;;;;;;;4.22;1.90;;;22.70;58.30;;;;;;5021872;28;43972;-58
2022/09/23 09:52:37;;;;;;;2.53;1.77;;;22.70;58.30;;;;;;5014511;28;43496;-58
2022/09/23 09:55:12;;;;;;;2.15;1.77;;;22.70;58.20;;;;;;5021580;28;43524;-58
2022/09/23 09:58:00;;;;;;;1.90;1.70;;;22.70;58.10;;;;;;5020486;28;44999;-58
2022/09/23 10:00:28;;;;;;;2.15;1.92;;;22.70;57.90;;;;;;5020061;28;43947;-58
2022/09/23 10:03:07;;;;;;;2.47;1.75;;;22.80;58.20;;;;;;5020393;28;43497;-58
2022/09/23 10:05:46;;;;;;;2.15;1.70;;;22.80;58.10;;;;;;5021138;28;43570;-58
2022/09/23 10:08:35;;;;;;;2.88;1.75;;;22.80;58.70;;;;;;5021310;28;44757;-58
2022/09/23 10:11:07;;;;;;;2.67;1.70;;;22.80;58.30;;;;;;5018115;28;43542;-58
2022/09/23 10:13:35;;;;;;;3.33;1.70;;;22.80;58.30;;;;;;5020245;28;43499;-58
2022/09/23 10:16:03;;;;;;;3.60;1.65;;;22.80;58.40;;;;;;5021363;28;43491;-58
2022/09/23 10:18:47;;;;;;;3.63;1.58;;;22.80;58.40;;;;;;5020835;28;44758;-58
2022/09/23 10:21:16;;;;;;;2.17;1.88;;;22.80;58.30;;;;;;5017316;28;43830;-58
2022/09/23 10:23:50;;;;;;;1.70;1.60;;;22.80;58.30;;;;;;5020772;28;43530;-58
2022/09/23 10:26:31;;;;;;;1.65;1.55;;;22.80;58.30;;;;;;5019023;28;43495;-58
2022/09/23 10:29:19;;;;;;;4.00;1.63;;;22.80;58.10;;;;;;5021017;28;44815;-60
2022/09/23 10:31:46;;;;;;;2.05;1.50;;;22.70;58.40;;;;;;5020356;28;43805;-58
2022/09/23 10:34:27;;;;;;;2.35;1.60;;;22.70;58.70;;;;;;5020928;28;43538;-57
2022/09/23 10:37:02;;;;;;;2.28;1.45;;;22.70;58.40;;;;;;5020941;28;43545;-58
2022/09/23 10:48:44;;;;;;;2.00;1.58;;;22.60;58.60;;;;;;5018813;28;43424;-58
2022/09/23 10:51:37;;;;;;;4.43;1.70;;;22.60;58.70;;;;;;5021149;28;43991;-58
2022/09/23 10:54:14;;;;;;;2.67;1.90;;;22.50;58.70;;;;;;5020661;28;43875;-58
2022/09/23 10:56:47;;;;;;;1.63;1.40;;;22.50;58.70;;;;;;5019165;28;43441;-57
2022/09/23 10:59:39;;;;;;;2.55;2.00;;;22.50;58.80;;;;;;5020374;28;44006;-58
2022/09/23 11:02:36;;;;;;;1.70;1.60;;;22.50;59.00;;;;;;5019612;28;44181;-58
2022/09/23 11:05:25;;;;;;;1.77;1.55;;;22.50;58.80;;;;;;5018767;28;43481;-58
2022/09/23 11:08:32;;;;;;;1.50;1.40;;;22.40;58.80;;;;;;5021061;28;44021;-58
2022/09/23 11:11:17;;;;;;;2.03;1.60;;;22.40;59.00;;;;;;5021502;28;43494;-57
2022/09/23 11:14:00;;;;;;;2.90;1.65;;;22.40;59.10;;;;;;5015356;28;45762;-58
2022/09/23 11:16:37;;;;;;;1.83;1.70;;;22.30;59.00;;;;;;5016266;28;43463;-58
2022/09/23 11:19:31;;;;;;;1.85;1.75;;;22.30;59.00;;;;;;5021032;28;43482;-58
2022/09/23 11:22:36;;;;;;;1.83;1.73;;;22.30;59.30;;;;;;5023604;28;43422;-58
2022/09/23 11:25:23;;;;;;;1.90;1.63;;;22.20;59.20;;;;;;5019245;28;44110;-58
2022/09/23 11:28:32;;;;;;;1.85;1.73;;;22.20;59.30;;;;;;5023605;28;43975;-58
2022/09/23 11:31:20;;;;;;;3.90;1.73;;;22.20;59.30;;;;;;5000959;28;43468;-58
2022/09/23 11:34:06;;;;;;;1.77;1.58;;;22.10;59.50;;;;;;5001558;28;43548;-58
2022/09/23 11:36:59;;;;;;;2.13;1.63;;;22.20;59.60;;;;;;5015177;28;44041;-58
2022/09/23 11:39:52;;;;;;;1.92;1.80;;;22.10;59.40;;;;;;5019270;28;44074;-58
2022/09/23 11:42:32;;;;;;;2.17;1.85;;;22.10;59.50;;;;;;5021329;28;43568;-58
2022/09/23 11:45:29;;;;;;;2.55;1.80;;;22.10;59.60;;;;;;5021385;28;43424;-57
2022/09/23 11:48:10;;;;;;;1.85;1.60;;;22.10;59.60;;;;;;5021039;28;44097;-58
2022/09/23 11:50:43;;;;;;;2.10;1.63;;;22.10;59.60;;;;;;5020796;28;43458;-58
2022/09/23 11:53:41;;;;;;;1.63;1.52;;;22.10;59.70;;;;;;5019408;28;43437;-58
2022/09/23 11:56:27;;;;;;;1.70;1.60;;;22.10;59.70;;;;;;5023684;28;43474;-58
2022/09/23 11:59:32;;;;;;;1.58;1.48;;;22.00;59.70;;;;;;5023069;28;45161;-58
2022/09/23 12:02:32;;;;;;;2.08;1.88;;;22.00;59.80;;;;;;5020030;28;43995;-58
2022/09/23 12:05:15;;;;;;;1.60;1.50;;;22.00;59.80;;;;;;5020234;28;43444;-58
2022/09/23 12:07:56;;;;;;;2.13;1.92;;;22.00;59.90;;;;;;5020273;28;43430;-60
2022/09/23 12:10:35;;;;;;;;;;;22.00;60.60;;;;;;5024019;28;44055;-57
2022/09/23 12:13:31;;;;;;;1.80;1.70;;;21.90;60.00;;;;;;5015731;28;43533;-57
2022/09/23 12:16:23;;;;;;;1.80;1.63;;;21.90;60.10;;;;;;5024043;28;43497;-58
2022/09/23 12:18:53;;;;;;;1.70;1.60;;;21.90;60.00;;;;;;5023138;28;43555;-58
2022/09/23 12:21:50;;;;;;;1.77;1.67;;;21.80;60.00;;;;;;5023166;28;44086;-58
2022/09/23 12:24:26;;;;;;;2.45;1.75;;;21.80;60.10;;;;;;5023737;28;44153;-58
2022/09/23 12:26:58;;;;;;;1.75;1.65;;;21.80;60.10;;;;;;5023209;28;43424;-58
2022/09/23 12:29:30;;;;;;;1.85;1.70;;;21.80;60.10;;;;;;5023588;28;43601;-58
2022/09/23 12:31:58;;;;;;;1.75;1.65;;;21.70;60.20;;;;;;5021145;28;43618;-58
2022/09/23 12:34:35;;;;;;;2.28;1.83;;;21.80;60.30;;;;;;5022637;28;43435;-58
2022/09/23 12:37:03;;;;;;;1.80;1.70;;;21.70;60.30;;;;;;5023916;28;43402;-58
2022/09/23 12:39:37;;;;;;;1.90;1.70;;;21.70;60.40;;;;;;5023315;28;43569;-58
2022/09/23 12:42:17;;;;;;;1.83;1.70;;;21.70;60.40;;;;;;5023007;28;44979;-58
2022/09/23 12:44:47;;;;;;;1.90;1.80;;;21.70;60.40;;;;;;5023345;28;43574;-57
2022/09/23 12:47:19;;;;;;;1.83;1.70;;;21.70;60.50;;;;;;5023445;28;43447;-57
2022/09/23 12:49:49;;;;;;;1.70;1.60;;;21.60;60.50;;;;;;5022973;28;43375;-57
2022/09/23 12:52:16;;;;;;;2.72;1.60;;;21.60;60.50;;;;;;5023369;28;45301;-58
2022/09/23 12:54:46;;;;;;;1.75;1.65;;;21.60;60.50;;;;;;5021634;28;43566;-58
2022/09/23 12:57:33;;;;;;;1.70;1.60;;;21.60;60.50;;;;;;5021173;28;43511;-57
2022/09/23 13:00:11;;;;;;;1.80;1.70;;;21.60;60.60;;;;;;5022967;28;43677;-58
2022/09/23 13:06:37;;;;;;;1.80;1.70;;;21.50;60.60;;;;;;5022315;28;44826;-58
2022/09/23 13:08:40;;;;;;;2.15;2.00;;;21.50;60.70;;;;;;5022735;28;43561;-57
2022/09/23 13:11:25;;;;;;;2.13;2.03;;;21.50;60.70;;;;;;5023807;28;43404;-58
2022/09/23 13:13:56;;;;;;;2.05;1.88;;;21.50;60.80;;;;;;5021416;28;44061;-58
2022/09/23 13:16:31;;;;;;;1.67;1.58;;;21.50;60.80;;;;;;5022220;28;43803;-58
2022/09/23 13:19:01;;;;;;;1.83;1.73;;;21.50;60.80;;;;;;5023416;28;43462;-58
2022/09/23 13:21:41;;;;;;;1.83;1.73;;;21.40;60.90;;;;;;5037946;28;43489;-58
2022/09/23 13:24:11;;;;;;;2.35;2.15;;;21.50;61.50;;;;;;5022111;28;45007;-57
2022/09/23 13:26:43;;;;;;;2.03;1.83;;;21.40;60.90;;;;;;5022078;28;43502;-57
2022/09/23 13:29:26;;;;;;;2.08;1.88;;;21.40;61.00;;;;;;5023047;28;43441;-58
2022/09/23 13:31:56;;;;;;;2.95;1.98;;;21.40;61.00;;;;;;5022702;28;43530;-58
2022/09/23 13:34:30;;;;;;;3.00;1.73;;;21.40;61.80;;;;;;5022168;28;43787;-59
2022/09/23 13:37:09;;;;;;;2.47;2.03;;;21.40;61.60;;;;;;5021515;28;43514;-58
2022/09/23 13:39:37;;;;;;;6.28;1.80;;;21.40;62.00;;;;;;5022052;28;43479;-57
2022/09/23 13:42:07;;;;;;;3.72;2.10;;;21.40;62.20;;;;;;5016609;28;43426;-58